RPLL/MNL METAR and TAF weather

Enter ICAO airport designator
Station Type Date Time Source
RPLL METAR 2019/12/12 17:00 UTC NOAA

RPLL 121700Z VRB01KT 9999 FEW025 26/23 Q1014 NOSIG RMK A2994


Station Type Date Time Source
RPLL Decoded METAR 2019/12/12 17:00 UTC NOAA

Ninoy Aquino Inter-National Airport, Philippines (RPLL) 14-31N 121-00E 15M
Dec 12, 2019 - 12:00 PM EST / 2019.12.12 1700 UTC
Wind: Variable at 1 MPH (1 KT):0
Visibility: greater than 7 mile(s):0
Sky conditions: mostly clear
Temperature: 78 F (26 C)
Dew Point: 73 F (23 C)
Relative Humidity: 83%
Pressure (altimeter): 29.94 in. Hg (1014 hPa)
ob: RPLL 121700Z VRB01KT 9999 FEW025 26/23 Q1014 NOSIG RMK A2994
cycle: 17

Station Type Date Time Source
RPLL TAF 2019/12/12 18:03 UTC NOAA

TAF RPLL 121700Z 1218/1324 11006KT 9999 FEW025 SCT100 TX32/1306Z TN25/1221Z
TEMPO 1218/1224 10005KT FEW023 BKN100
TEMPO 1301/1307 VRB03KT SCT023 BKN100

Example: see airport list